createdAt,value
2019-06-15T04:58:18.367Z,38.50
2019-06-15T05:01:23.591Z,47.15
2019-06-15T05:04:19.497Z,34.30
2019-06-15T05:07:19.313Z,34.45
2019-06-15T05:10:18.885Z,33.83
2019-06-15T05:13:25.593Z,31.60
2019-06-15T05:16:26.460Z,32.00
2019-06-15T05:19:22.332Z,33.75
2019-06-15T05:22:31.226Z,33.40
2019-06-15T05:25:26.408Z,29.85
2019-06-15T05:28:22.450Z,35.28
2019-06-15T05:31:18.260Z,29.92
2019-06-15T05:34:14.696Z,29.12
2019-06-15T05:37:10.357Z,26.20
2019-06-15T05:40:11.085Z,32.55
2019-06-15T05:47:04.218Z,31.90
2019-06-15T05:50:01.481Z,21.12
2019-06-15T05:53:12.668Z,22.62
2019-06-15T05:56:17.662Z,32.25
2019-06-15T05:59:17.371Z,24.18
2019-06-15T06:02:15.334Z,21.40
2019-06-15T06:05:16.962Z,31.35
2019-06-15T06:08:14.735Z,25.27
2019-06-15T06:11:10.752Z,26.70
2019-06-15T06:14:08.426Z,25.97
2019-06-15T06:17:08.068Z,25.10
2019-06-15T06:20:04.789Z,26.93
2019-06-15T06:23:02.620Z,25.12
2019-06-15T06:26:06.368Z,23.30
2019-06-15T06:29:04.731Z,29.50
2019-06-15T06:32:01.842Z,17.95
2019-06-15T06:34:59.746Z,22.65
2019-06-15T06:37:57.383Z,18.62
2019-06-15T06:40:56.026Z,21.23
2019-06-15T06:43:53.628Z,26.73
2019-06-15T06:46:48.800Z,30.08
2019-06-15T06:49:46.437Z,29.20
2019-06-15T06:52:42.081Z,27.90
2019-06-15T06:55:38.106Z,23.57
2019-06-15T06:58:33.847Z,28.60
2019-06-15T07:01:30.872Z,27.20
2019-06-15T08:26:10.712Z,35.45
2019-06-15T08:29:06.956Z,29.55
2019-06-15T08:32:03.568Z,28.10
2019-06-15T08:35:01.440Z,28.85
2019-06-15T08:37:57.419Z,29.52
2019-06-15T08:40:56.395Z,24.15
2019-06-15T08:44:08.427Z,24.98
2019-06-15T08:47:05.583Z,29.18
2019-06-15T08:50:01.724Z,28.25
2019-06-15T08:52:58.721Z,28.92
2019-06-15T08:55:58.548Z,29.30
2019-06-15T08:58:58.452Z,26.12
2019-06-15T09:01:54.618Z,21.30
2019-06-15T09:04:50.210Z,25.50
2019-06-15T09:07:48.912Z,24.72
2019-06-15T09:10:47.559Z,29.95
2019-06-15T09:13:46.026Z,27.75
2019-06-15T09:16:44.295Z,25.55
2019-06-15T09:19:42.145Z,24.82
2019-06-15T09:22:40.091Z,29.60
2019-06-15T09:25:38.429Z,23.18
2019-06-15T09:28:36.189Z,22.62
2019-06-15T09:31:35.289Z,28.57
2019-06-15T09:34:32.855Z,20.02
2019-06-15T09:37:30.874Z,26.15
2019-06-15T09:40:28.462Z,25.82
2019-06-15T09:43:24.332Z,21.02
2019-06-15T09:46:19.664Z,26.10
2019-06-15T09:49:21.895Z,21.97
2019-06-15T09:52:17.972Z,26.27
2019-06-15T09:55:15.986Z,25.43
2019-06-15T09:58:11.698Z,28.92
2019-06-15T10:01:07.219Z,34.80
2019-06-15T10:04:02.931Z,29.52
2019-06-15T10:06:58.705Z,28.52
2019-06-15T10:09:54.574Z,31.12
2019-06-15T10:13:03.654Z,22.35
2019-06-15T10:15:58.176Z,22.85
2019-06-15T10:19:00.539Z,26.95
2019-06-15T10:21:56.408Z,25.68
2019-06-15T10:24:52.659Z,31.00
2019-06-15T10:27:49.994Z,29.82
2019-06-15T10:30:46.704Z,36.65
2019-06-15T10:33:45.125Z,39.98
2019-06-15T10:36:45.358Z,42.78
2019-06-15T10:39:41.880Z,39.60
2019-06-15T10:42:39.462Z,40.88
2019-06-15T10:45:39.282Z,30.50
2019-06-15T10:48:39.137Z,25.48
2019-06-15T10:51:37.321Z,31.25
2019-06-15T10:54:34.454Z,33.38
2019-06-15T10:57:31.565Z,27.42
2019-06-15T11:00:28.884Z,34.55
2019-06-15T11:03:26.771Z,34.08
2019-06-15T11:06:24.050Z,36.08
2019-06-15T11:09:20.033Z,38.28
2019-06-15T11:12:16.072Z,33.98
2019-06-15T11:15:12.707Z,29.40
2019-06-15T11:18:09.097Z,28.45
2019-06-15T11:21:06.307Z,36.20
2019-06-15T11:24:01.853Z,30.08
2019-06-15T11:26:57.575Z,27.17
2019-06-15T11:29:54.264Z,30.12
2019-06-15T11:32:50.068Z,36.35
2019-06-15T11:35:47.725Z,28.80
2019-06-15T11:38:43.148Z,22.50
2019-06-15T11:41:41.229Z,32.83
2019-06-15T11:44:38.358Z,43.23
2019-06-15T11:47:35.870Z,27.73
2019-06-15T11:50:33.535Z,25.40
2019-06-15T11:53:32.583Z,27.37
2019-06-15T11:56:29.234Z,37.13
2019-06-15T11:59:26.063Z,30.45
2019-06-15T12:02:23.229Z,31.37
2019-06-15T12:05:21.029Z,33.33
2019-06-15T12:08:18.165Z,35.10
2019-06-15T12:11:13.932Z,38.33
2019-06-15T12:14:16.608Z,36.70
2019-06-15T12:17:14.816Z,38.45
2019-06-15T12:20:11.110Z,38.35
2019-06-15T12:23:07.268Z,44.35
2019-06-15T12:26:04.028Z,43.05
2019-06-15T12:29:01.535Z,35.70
2019-06-15T12:31:58.558Z,43.50
2019-06-15T12:34:56.352Z,40.98
2019-06-15T12:37:52.460Z,49.38
2019-06-15T12:40:50.596Z,54.63
2019-06-15T12:43:49.128Z,49.27
2019-06-15T12:46:48.545Z,49.10
2019-06-15T12:49:54.561Z,52.78
2019-06-15T12:52:53.001Z,44.45
2019-06-15T12:55:51.474Z,47.83
2019-06-15T12:58:50.595Z,41.20
2019-06-15T13:01:54.127Z,42.62
2019-06-15T13:04:50.219Z,45.20
2019-06-15T13:07:47.244Z,42.55
2019-06-15T13:10:43.981Z,43.68
2019-06-15T13:13:40.132Z,38.15
2019-06-15T13:16:39.703Z,32.63
2019-06-15T13:19:36.794Z,36.38
2019-06-15T13:22:34.047Z,38.78
2019-06-15T13:25:32.006Z,42.08
2019-06-15T13:28:29.941Z,33.55
2019-06-15T13:31:29.308Z,37.55
2019-06-15T13:34:26.559Z,37.75
2019-06-15T13:37:23.277Z,31.17
2019-06-15T13:40:20.906Z,33.05
2019-06-15T13:43:18.065Z,40.20
2019-06-15T13:46:15.993Z,31.68
2019-06-15T13:49:12.781Z,30.45
2019-06-15T13:52:09.886Z,30.23
